sensor_id;sensor_type;location;lat;lon;timestamp;P1;durP1;ratioP1;P2;durP2;ratioP2
20036;SDS011;10179;42.640;23.312;2022-12-18T00:01:02;4.38;;;2.80;;
20036;SDS011;10179;42.640;23.312;2022-12-18T00:03:34;6.10;;;3.35;;
20036;SDS011;10179;42.640;23.312;2022-12-18T00:06:00;6.43;;;3.90;;
20036;SDS011;10179;42.640;23.312;2022-12-18T00:08:26;5.72;;;3.92;;
20036;SDS011;10179;42.640;23.312;2022-12-18T00:10:51;6.70;;;3.95;;
20036;SDS011;10179;42.640;23.312;2022-12-18T00:13:17;7.25;;;4.07;;
20036;SDS011;10179;42.640;23.312;2022-12-18T00:15:42;7.35;;;4.40;;
20036;SDS011;10179;42.640;23.312;2022-12-18T00:18:08;6.80;;;4.43;;
20036;SDS011;10179;42.640;23.312;2022-12-18T00:20:37;12.57;;;4.40;;
20036;SDS011;10179;42.640;23.312;2022-12-18T00:23:04;7.32;;;4.80;;
20036;SDS011;10179;42.640;23.312;2022-12-18T00:25:32;7.60;;;4.63;;
20036;SDS011;10179;42.640;23.312;2022-12-18T00:27:59;8.98;;;5.43;;
20036;SDS011;10179;42.640;23.312;2022-12-18T00:30:24;9.43;;;5.00;;
20036;SDS011;10179;42.640;23.312;2022-12-18T00:32:50;9.32;;;4.95;;
20036;SDS011;10179;42.640;23.312;2022-12-18T00:35:15;6.97;;;4.15;;
20036;SDS011;10179;42.640;23.312;2022-12-18T00:37:41;7.20;;;4.55;;
20036;SDS011;10179;42.640;23.312;2022-12-18T00:40:06;8.60;;;5.07;;
20036;SDS011;10179;42.640;23.312;2022-12-18T00:42:32;9.57;;;5.50;;
20036;SDS011;10179;42.640;23.312;2022-12-18T00:45:17;9.10;;;5.40;;
20036;SDS011;10179;42.640;23.312;2022-12-18T00:47:42;7.68;;;4.90;;
20036;SDS011;10179;42.640;23.312;2022-12-18T00:50:08;10.90;;;5.18;;
20036;SDS011;10179;42.640;23.312;2022-12-18T00:52:34;7.43;;;4.20;;
20036;SDS011;10179;42.640;23.312;2022-12-18T00:54:59;7.65;;;4.70;;
20036;SDS011;10179;42.640;23.312;2022-12-18T00:57:25;7.82;;;4.60;;
20036;SDS011;10179;42.640;23.312;2022-12-18T00:59:50;7.65;;;4.88;;
20036;SDS011;10179;42.640;23.312;2022-12-18T01:02:15;8.73;;;4.50;;
20036;SDS011;10179;42.640;23.312;2022-12-18T01:04:41;7.78;;;4.55;;
20036;SDS011;10179;42.640;23.312;2022-12-18T01:07:06;9.15;;;5.07;;
20036;SDS011;10179;42.640;23.312;2022-12-18T01:09:32;8.50;;;5.60;;
20036;SDS011;10179;42.640;23.312;2022-12-18T01:11:57;6.72;;;4.50;;
20036;SDS011;10179;42.640;23.312;2022-12-18T01:14:22;9.07;;;4.72;;
20036;SDS011;10179;42.640;23.312;2022-12-18T01:16:48;7.55;;;4.47;;
20036;SDS011;10179;42.640;23.312;2022-12-18T01:19:13;9.07;;;5.15;;
20036;SDS011;10179;42.640;23.312;2022-12-18T01:21:38;10.93;;;5.35;;
20036;SDS011;10179;42.640;23.312;2022-12-18T01:24:04;7.72;;;4.70;;
20036;SDS011;10179;42.640;23.312;2022-12-18T01:26:31;8.52;;;5.15;;
20036;SDS011;10179;42.640;23.312;2022-12-18T01:28:56;9.48;;;5.00;;
20036;SDS011;10179;42.640;23.312;2022-12-18T01:31:26;8.40;;;5.10;;
20036;SDS011;10179;42.640;23.312;2022-12-18T01:33:53;9.27;;;5.85;;
20036;SDS011;10179;42.640;23.312;2022-12-18T01:36:20;10.40;;;5.88;;
20036;SDS011;10179;42.640;23.312;2022-12-18T01:38:48;9.63;;;5.65;;
20036;SDS011;10179;42.640;23.312;2022-12-18T01:41:15;9.68;;;5.97;;
20036;SDS011;10179;42.640;23.312;2022-12-18T01:44:46;10.30;;;5.80;;
20036;SDS011;10179;42.640;23.312;2022-12-18T01:46:48;12.40;;;6.05;;
20036;SDS011;10179;42.640;23.312;2022-12-18T01:49:13;12.25;;;6.40;;
20036;SDS011;10179;42.640;23.312;2022-12-18T01:51:39;8.43;;;5.72;;
20036;SDS011;10179;42.640;23.312;2022-12-18T01:54:04;11.90;;;6.30;;
20036;SDS011;10179;42.640;23.312;2022-12-18T01:56:29;11.30;;;6.32;;
20036;SDS011;10179;42.640;23.312;2022-12-18T01:59:00;12.07;;;7.10;;
20036;SDS011;10179;42.640;23.312;2022-12-18T02:01:29;12.65;;;6.68;;
20036;SDS011;10179;42.640;23.312;2022-12-18T02:03:55;14.30;;;6.93;;
20036;SDS011;10179;42.640;23.312;2022-12-18T02:06:24;11.50;;;7.15;;
20036;SDS011;10179;42.640;23.312;2022-12-18T02:09:06;11.45;;;6.88;;
20036;SDS011;10179;42.640;23.312;2022-12-18T02:19:41;13.35;;;6.88;;
20036;SDS011;10179;42.640;23.312;2022-12-18T02:27:18;16.15;;;7.28;;
20036;SDS011;10179;42.640;23.312;2022-12-18T02:29:46;11.75;;;6.70;;
20036;SDS011;10179;42.640;23.312;2022-12-18T02:32:18;11.40;;;7.20;;
20036;SDS011;10179;42.640;23.312;2022-12-18T02:34:49;12.70;;;6.40;;
20036;SDS011;10179;42.640;23.312;2022-12-18T02:37:16;10.95;;;6.90;;
20036;SDS011;10179;42.640;23.312;2022-12-18T02:39:44;12.13;;;6.47;;
20036;SDS011;10179;42.640;23.312;2022-12-18T02:42:12;13.77;;;7.15;;
20036;SDS011;10179;42.640;23.312;2022-12-18T02:44:42;11.93;;;7.03;;
20036;SDS011;10179;42.640;23.312;2022-12-18T02:47:18;12.63;;;6.35;;
20036;SDS011;10179;42.640;23.312;2022-12-18T02:58:07;13.05;;;7.00;;
20036;SDS011;10179;42.640;23.312;2022-12-18T03:00:41;9.73;;;6.53;;
20036;SDS011;10179;42.640;23.312;2022-12-18T03:03:13;10.32;;;6.22;;
20036;SDS011;10179;42.640;23.312;2022-12-18T03:08:26;12.90;;;6.47;;
20036;SDS011;10179;42.640;23.312;2022-12-18T03:10:56;12.25;;;6.18;;
20036;SDS011;10179;42.640;23.312;2022-12-18T03:13:45;11.68;;;6.40;;
20036;SDS011;10179;42.640;23.312;2022-12-18T03:16:24;8.57;;;5.38;;
20036;SDS011;10179;42.640;23.312;2022-12-18T03:18:54;12.32;;;6.40;;
20036;SDS011;10179;42.640;23.312;2022-12-18T03:21:26;10.32;;;5.80;;
20036;SDS011;10179;42.640;23.312;2022-12-18T03:23:54;11.27;;;5.43;;
20036;SDS011;10179;42.640;23.312;2022-12-18T03:26:22;9.75;;;5.35;;
20036;SDS011;10179;42.640;23.312;2022-12-18T03:28:51;7.40;;;4.50;;
20036;SDS011;10179;42.640;23.312;2022-12-18T03:31:21;7.25;;;4.22;;
20036;SDS011;10179;42.640;23.312;2022-12-18T03:33:55;9.52;;;4.88;;
20036;SDS011;10179;42.640;23.312;2022-12-18T03:36:24;7.60;;;4.43;;
20036;SDS011;10179;42.640;23.312;2022-12-18T03:38:50;5.38;;;3.60;;
20036;SDS011;10179;42.640;23.312;2022-12-18T03:46:58;6.07;;;3.90;;
20036;SDS011;10179;42.640;23.312;2022-12-18T03:52:26;5.88;;;3.53;;
20036;SDS011;10179;42.640;23.312;2022-12-18T03:54:58;7.22;;;4.55;;
20036;SDS011;10179;42.640;23.312;2022-12-18T03:57:27;8.43;;;4.35;;
20036;SDS011;10179;42.640;23.312;2022-12-18T03:59:56;15.57;;;4.63;;
20036;SDS011;10179;42.640;23.312;2022-12-18T04:02:25;6.60;;;4.25;;
20036;SDS011;10179;42.640;23.312;2022-12-18T04:04:52;5.60;;;3.90;;
20036;SDS011;10179;42.640;23.312;2022-12-18T04:07:20;6.72;;;3.97;;
20036;SDS011;10179;42.640;23.312;2022-12-18T04:09:48;6.05;;;3.90;;
20036;SDS011;10179;42.640;23.312;2022-12-18T04:12:15;7.00;;;4.20;;
20036;SDS011;10179;42.640;23.312;2022-12-18T04:14:40;7.20;;;4.22;;
20036;SDS011;10179;42.640;23.312;2022-12-18T04:17:06;5.30;;;3.20;;
20036;SDS011;10179;42.640;23.312;2022-12-18T04:19:31;7.75;;;4.03;;
20036;SDS011;10179;42.640;23.312;2022-12-18T04:21:57;6.90;;;3.83;;
20036;SDS011;10179;42.640;23.312;2022-12-18T04:24:22;6.40;;;4.05;;
20036;SDS011;10179;42.640;23.312;2022-12-18T04:26:48;6.88;;;4.35;;
20036;SDS011;10179;42.640;23.312;2022-12-18T04:29:13;6.13;;;4.05;;
20036;SDS011;10179;42.640;23.312;2022-12-18T04:31:38;7.75;;;4.30;;
20036;SDS011;10179;42.640;23.312;2022-12-18T04:34:04;6.68;;;3.75;;
20036;SDS011;10179;42.640;23.312;2022-12-18T04:36:29;8.57;;;4.32;;
20036;SDS011;10179;42.640;23.312;2022-12-18T04:38:55;5.95;;;3.83;;
20036;SDS011;10179;42.640;23.312;2022-12-18T04:41:20;8.98;;;4.28;;
20036;SDS011;10179;42.640;23.312;2022-12-18T04:43:46;6.47;;;3.85;;
20036;SDS011;10179;42.640;23.312;2022-12-18T04:46:11;7.22;;;4.03;;
20036;SDS011;10179;42.640;23.312;2022-12-18T04:48:37;7.13;;;4.20;;
20036;SDS011;10179;42.640;23.312;2022-12-18T04:51:03;11.13;;;4.85;;
20036;SDS011;10179;42.640;23.312;2022-12-18T04:53:29;11.75;;;5.45;;
20036;SDS011;10179;42.640;23.312;2022-12-18T04:58:31;9.93;;;5.25;;
20036;SDS011;10179;42.640;23.312;2022-12-18T05:00:56;9.48;;;5.13;;
20036;SDS011;10179;42.640;23.312;2022-12-18T05:03:22;7.50;;;4.53;;
20036;SDS011;10179;42.640;23.312;2022-12-18T05:05:50;7.78;;;4.47;;
20036;SDS011;10179;42.640;23.312;2022-12-18T05:08:16;8.55;;;4.57;;
20036;SDS011;10179;42.640;23.312;2022-12-18T05:10:42;9.55;;;5.40;;
20036;SDS011;10179;42.640;23.312;2022-12-18T05:13:07;10.02;;;5.30;;
20036;SDS011;10179;42.640;23.312;2022-12-18T05:15:32;9.40;;;5.28;;
20036;SDS011;10179;42.640;23.312;2022-12-18T05:17:59;10.55;;;5.72;;
20036;SDS011;10179;42.640;23.312;2022-12-18T05:20:25;9.75;;;5.72;;
20036;SDS011;10179;42.640;23.312;2022-12-18T05:22:52;13.48;;;6.15;;
20036;SDS011;10179;42.640;23.312;2022-12-18T05:25:17;8.68;;;5.28;;
20036;SDS011;10179;42.640;23.312;2022-12-18T05:27:44;11.20;;;6.07;;
20036;SDS011;10179;42.640;23.312;2022-12-18T05:30:10;10.90;;;5.72;;
20036;SDS011;10179;42.640;23.312;2022-12-18T05:32:36;11.32;;;6.38;;
20036;SDS011;10179;42.640;23.312;2022-12-18T05:35:02;12.68;;;5.90;;
20036;SDS011;10179;42.640;23.312;2022-12-18T05:37:28;13.23;;;6.82;;
20036;SDS011;10179;42.640;23.312;2022-12-18T05:39:53;13.57;;;7.47;;
20036;SDS011;10179;42.640;23.312;2022-12-18T05:42:19;11.82;;;6.68;;
20036;SDS011;10179;42.640;23.312;2022-12-18T05:44:45;7.82;;;5.28;;
20036;SDS011;10179;42.640;23.312;2022-12-18T05:47:10;10.48;;;6.18;;
20036;SDS011;10179;42.640;23.312;2022-12-18T05:49:35;11.13;;;5.75;;
20036;SDS011;10179;42.640;23.312;2022-12-18T05:52:01;12.20;;;6.50;;
20036;SDS011;10179;42.640;23.312;2022-12-18T05:54:27;12.70;;;6.80;;
20036;SDS011;10179;42.640;23.312;2022-12-18T05:56:53;12.98;;;7.50;;
20036;SDS011;10179;42.640;23.312;2022-12-18T05:59:19;15.55;;;8.32;;
20036;SDS011;10179;42.640;23.312;2022-12-18T06:01:44;19.58;;;9.05;;
20036;SDS011;10179;42.640;23.312;2022-12-18T06:04:10;16.38;;;8.50;;
20036;SDS011;10179;42.640;23.312;2022-12-18T06:06:35;15.93;;;7.80;;
20036;SDS011;10179;42.640;23.312;2022-12-18T06:09:01;14.45;;;8.45;;
20036;SDS011;10179;42.640;23.312;2022-12-18T06:11:33;14.07;;;8.35;;
20036;SDS011;10179;42.640;23.312;2022-12-18T06:13:59;14.70;;;6.93;;
20036;SDS011;10179;42.640;23.312;2022-12-18T06:16:26;15.75;;;8.40;;
20036;SDS011;10179;42.640;23.312;2022-12-18T06:18:52;13.77;;;8.07;;
20036;SDS011;10179;42.640;23.312;2022-12-18T06:21:18;13.77;;;7.20;;
20036;SDS011;10179;42.640;23.312;2022-12-18T06:23:43;15.27;;;7.80;;
20036;SDS011;10179;42.640;23.312;2022-12-18T06:26:10;18.48;;;7.07;;
20036;SDS011;10179;42.640;23.312;2022-12-18T06:28:37;14.30;;;7.18;;
20036;SDS011;10179;42.640;23.312;2022-12-18T06:31:03;10.93;;;6.22;;
20036;SDS011;10179;42.640;23.312;2022-12-18T06:33:29;13.23;;;6.40;;
20036;SDS011;10179;42.640;23.312;2022-12-18T06:35:59;11.15;;;6.10;;
20036;SDS011;10179;42.640;23.312;2022-12-18T06:38:26;12.32;;;6.28;;
20036;SDS011;10179;42.640;23.312;2022-12-18T06:40:51;10.82;;;6.22;;
20036;SDS011;10179;42.640;23.312;2022-12-18T06:43:17;11.38;;;5.68;;
20036;SDS011;10179;42.640;23.312;2022-12-18T06:45:42;11.63;;;6.07;;
20036;SDS011;10179;42.640;23.312;2022-12-18T06:48:08;12.55;;;6.72;;
20036;SDS011;10179;42.640;23.312;2022-12-18T06:50:33;14.10;;;6.72;;
20036;SDS011;10179;42.640;23.312;2022-12-18T06:52:59;14.93;;;6.68;;
20036;SDS011;10179;42.640;23.312;2022-12-18T06:55:24;11.60;;;6.78;;
20036;SDS011;10179;42.640;23.312;2022-12-18T06:57:50;16.77;;;7.90;;
20036;SDS011;10179;42.640;23.312;2022-12-18T07:00:15;11.60;;;6.20;;
20036;SDS011;10179;42.640;23.312;2022-12-18T07:02:41;14.20;;;6.07;;
20036;SDS011;10179;42.640;23.312;2022-12-18T07:05:06;12.57;;;6.22;;
20036;SDS011;10179;42.640;23.312;2022-12-18T07:07:33;11.60;;;6.45;;
20036;SDS011;10179;42.640;23.312;2022-12-18T07:09:59;14.55;;;6.82;;
20036;SDS011;10179;42.640;23.312;2022-12-18T07:12:26;13.73;;;7.57;;
20036;SDS011;10179;42.640;23.312;2022-12-18T07:14:52;15.77;;;7.13;;
20036;SDS011;10179;42.640;23.312;2022-12-18T07:17:17;10.82;;;5.97;;
20036;SDS011;10179;42.640;23.312;2022-12-18T07:19:42;10.60;;;5.75;;
20036;SDS011;10179;42.640;23.312;2022-12-18T07:22:08;11.85;;;5.88;;
20036;SDS011;10179;42.640;23.312;2022-12-18T07:24:33;9.05;;;6.07;;
20036;SDS011;10179;42.640;23.312;2022-12-18T07:26:59;14.38;;;6.30;;
20036;SDS011;10179;42.640;23.312;2022-12-18T07:29:25;18.10;;;7.43;;
20036;SDS011;10179;42.640;23.312;2022-12-18T07:31:50;10.93;;;6.07;;
20036;SDS011;10179;42.640;23.312;2022-12-18T07:34:16;11.55;;;6.03;;
20036;SDS011;10179;42.640;23.312;2022-12-18T07:36:41;10.43;;;5.65;;
20036;SDS011;10179;42.640;23.312;2022-12-18T07:39:07;13.43;;;6.97;;
20036;SDS011;10179;42.640;23.312;2022-12-18T07:41:33;14.38;;;7.75;;
20036;SDS011;10179;42.640;23.312;2022-12-18T07:43:58;14.95;;;8.45;;
20036;SDS011;10179;42.640;23.312;2022-12-18T07:46:24;16.13;;;8.18;;
20036;SDS011;10179;42.640;23.312;2022-12-18T07:48:49;14.23;;;7.63;;
20036;SDS011;10179;42.640;23.312;2022-12-18T07:51:15;16.15;;;8.02;;
20036;SDS011;10179;42.640;23.312;2022-12-18T07:53:40;14.65;;;7.35;;
20036;SDS011;10179;42.640;23.312;2022-12-18T07:56:07;12.85;;;7.65;;
20036;SDS011;10179;42.640;23.312;2022-12-18T07:58:34;12.77;;;6.22;;
20036;SDS011;10179;42.640;23.312;2022-12-18T08:01:08;13.50;;;6.25;;
20036;SDS011;10179;42.640;23.312;2022-12-18T08:03:36;12.60;;;6.20;;
20036;SDS011;10179;42.640;23.312;2022-12-18T08:06:03;13.60;;;7.10;;
20036;SDS011;10179;42.640;23.312;2022-12-18T08:08:30;13.98;;;7.22;;
20036;SDS011;10179;42.640;23.312;2022-12-18T08:10:56;23.13;;;10.05;;
20036;SDS011;10179;42.640;23.312;2022-12-18T08:13:22;15.88;;;9.52;;
20036;SDS011;10179;42.640;23.312;2022-12-18T08:16:01;21.38;;;9.57;;
20036;SDS011;10179;42.640;23.312;2022-12-18T08:18:28;19.85;;;10.38;;
20036;SDS011;10179;42.640;23.312;2022-12-18T08:20:54;24.15;;;11.23;;
20036;SDS011;10179;42.640;23.312;2022-12-18T08:23:20;17.70;;;9.02;;
20036;SDS011;10179;42.640;23.312;2022-12-18T08:25:46;19.45;;;9.88;;
20036;SDS011;10179;42.640;23.312;2022-12-18T08:28:11;20.23;;;11.50;;
20036;SDS011;10179;42.640;23.312;2022-12-18T08:30:37;24.00;;;11.50;;
20036;SDS011;10179;42.640;23.312;2022-12-18T08:33:02;21.15;;;10.75;;
20036;SDS011;10179;42.640;23.312;2022-12-18T08:35:29;20.65;;;11.43;;
20036;SDS011;10179;42.640;23.312;2022-12-18T08:37:54;28.08;;;13.20;;
20036;SDS011;10179;42.640;23.312;2022-12-18T08:40:19;25.98;;;11.40;;
20036;SDS011;10179;42.640;23.312;2022-12-18T08:42:45;24.48;;;12.30;;
20036;SDS011;10179;42.640;23.312;2022-12-18T08:45:29;33.33;;;12.93;;
20036;SDS011;10179;42.640;23.312;2022-12-18T08:47:54;28.55;;;12.20;;
20036;SDS011;10179;42.640;23.312;2022-12-18T08:50:20;23.85;;;11.98;;
20036;SDS011;10179;42.640;23.312;2022-12-18T08:52:45;27.17;;;12.68;;
20036;SDS011;10179;42.640;23.312;2022-12-18T08:55:10;24.45;;;12.77;;
20036;SDS011;10179;42.640;23.312;2022-12-18T08:57:36;30.40;;;14.07;;
20036;SDS011;10179;42.640;23.312;2022-12-18T09:00:02;28.83;;;13.60;;
20036;SDS011;10179;42.640;23.312;2022-12-18T09:02:29;32.75;;;14.23;;
20036;SDS011;10179;42.640;23.312;2022-12-18T09:04:54;27.98;;;13.27;;
20036;SDS011;10179;42.640;23.312;2022-12-18T09:07:20;27.25;;;13.48;;
20036;SDS011;10179;42.640;23.312;2022-12-18T09:09:45;32.42;;;16.05;;
20036;SDS011;10179;42.640;23.312;2022-12-18T09:12:10;34.78;;;16.58;;
20036;SDS011;10179;42.640;23.312;2022-12-18T09:14:36;30.38;;;15.55;;
20036;SDS011;10179;42.640;23.312;2022-12-18T09:17:01;33.20;;;15.70;;
20036;SDS011;10179;42.640;23.312;2022-12-18T09:19:27;32.90;;;15.25;;
20036;SDS011;10179;42.640;23.312;2022-12-18T09:21:52;30.02;;;14.52;;
20036;SDS011;10179;42.640;23.312;2022-12-18T09:24:17;33.70;;;15.70;;
20036;SDS011;10179;42.640;23.312;2022-12-18T09:26:43;30.08;;;15.00;;
20036;SDS011;10179;42.640;23.312;2022-12-18T09:29:09;27.20;;;13.43;;
20036;SDS011;10179;42.640;23.312;2022-12-18T09:31:34;33.92;;;14.18;;
20036;SDS011;10179;42.640;23.312;2022-12-18T09:34:00;30.77;;;14.93;;
20036;SDS011;10179;42.640;23.312;2022-12-18T09:36:26;30.85;;;14.10;;
20036;SDS011;10179;42.640;23.312;2022-12-18T09:38:51;28.90;;;14.25;;
20036;SDS011;10179;42.640;23.312;2022-12-18T09:41:37;28.77;;;14.45;;
20036;SDS011;10179;42.640;23.312;2022-12-18T09:44:18;26.67;;;14.23;;
20036;SDS011;10179;42.640;23.312;2022-12-18T09:46:45;33.45;;;14.55;;
20036;SDS011;10179;42.640;23.312;2022-12-18T09:49:16;28.67;;;14.00;;
20036;SDS011;10179;42.640;23.312;2022-12-18T09:51:57;26.92;;;13.50;;
20036;SDS011;10179;42.640;23.312;2022-12-18T09:54:35;27.50;;;13.25;;
20036;SDS011;10179;42.640;23.312;2022-12-18T09:57:13;27.95;;;13.82;;
20036;SDS011;10179;42.640;23.312;2022-12-18T09:59:43;25.83;;;13.05;;
20036;SDS011;10179;42.640;23.312;2022-12-18T10:04:43;28.42;;;12.18;;
20036;SDS011;10179;42.640;23.312;2022-12-18T10:07:19;24.08;;;11.40;;
20036;SDS011;10179;42.640;23.312;2022-12-18T10:10:01;22.55;;;11.13;;
20036;SDS011;10179;42.640;23.312;2022-12-18T10:12:40;22.88;;;11.27;;
20036;SDS011;10179;42.640;23.312;2022-12-18T10:21:00;25.17;;;11.90;;
20036;SDS011;10179;42.640;23.312;2022-12-18T10:23:35;21.80;;;10.95;;
20036;SDS011;10179;42.640;23.312;2022-12-18T10:26:08;23.10;;;11.68;;
20036;SDS011;10179;42.640;23.312;2022-12-18T10:28:36;27.58;;;12.52;;
20036;SDS011;10179;42.640;23.312;2022-12-18T10:31:07;27.10;;;12.10;;
20036;SDS011;10179;42.640;23.312;2022-12-18T10:33:40;24.45;;;12.25;;
20036;SDS011;10179;42.640;23.312;2022-12-18T10:36:06;26.73;;;12.52;;
20036;SDS011;10179;42.640;23.312;2022-12-18T10:38:32;25.75;;;11.73;;
20036;SDS011;10179;42.640;23.312;2022-12-18T10:40:59;27.70;;;11.93;;
20036;SDS011;10179;42.640;23.312;2022-12-18T10:43:31;22.55;;;11.13;;
20036;SDS011;10179;42.640;23.312;2022-12-18T10:46:00;22.60;;;11.20;;
20036;SDS011;10179;42.640;23.312;2022-12-18T10:53:56;21.13;;;10.90;;
20036;SDS011;10179;42.640;23.312;2022-12-18T10:56:25;21.73;;;11.02;;
20036;SDS011;10179;42.640;23.312;2022-12-18T11:01:31;20.48;;;9.02;;
20036;SDS011;10179;42.640;23.312;2022-12-18T11:04:30;21.55;;;9.55;;
20036;SDS011;10179;42.640;23.312;2022-12-18T11:07:00;23.75;;;9.55;;
20036;SDS011;10179;42.640;23.312;2022-12-18T11:09:38;20.10;;;8.77;;
20036;SDS011;10179;42.640;23.312;2022-12-18T11:12:18;15.15;;;7.55;;
20036;SDS011;10179;42.640;23.312;2022-12-18T11:14:52;17.77;;;9.07;;
20036;SDS011;10179;42.640;23.312;2022-12-18T11:17:33;18.33;;;9.15;;
20036;SDS011;10179;42.640;23.312;2022-12-18T11:20:04;21.77;;;9.20;;
20036;SDS011;10179;42.640;23.312;2022-12-18T11:22:35;19.80;;;9.20;;
20036;SDS011;10179;42.640;23.312;2022-12-18T11:25:17;22.65;;;9.48;;
20036;SDS011;10179;42.640;23.312;2022-12-18T11:27:47;17.42;;;8.50;;
20036;SDS011;10179;42.640;23.312;2022-12-18T11:35:37;18.08;;;8.52;;
20036;SDS011;10179;42.640;23.312;2022-12-18T11:38:21;16.38;;;7.15;;
20036;SDS011;10179;42.640;23.312;2022-12-18T11:44:10;14.88;;;7.55;;
20036;SDS011;10179;42.640;23.312;2022-12-18T11:46:41;15.98;;;7.97;;
20036;SDS011;10179;42.640;23.312;2022-12-18T11:49:24;15.48;;;8.02;;
20036;SDS011;10179;42.640;23.312;2022-12-18T11:54:46;22.95;;;9.60;;
20036;SDS011;10179;42.640;23.312;2022-12-18T11:57:54;18.35;;;7.68;;
20036;SDS011;10179;42.640;23.312;2022-12-18T12:00:18;17.92;;;8.90;;
20036;SDS011;10179;42.640;23.312;2022-12-18T12:16:04;18.27;;;9.20;;
20036;SDS011;10179;42.640;23.312;2022-12-18T12:21:01;20.40;;;9.10;;
20036;SDS011;10179;42.640;23.312;2022-12-18T12:24:30;21.00;;;8.88;;
20036;SDS011;10179;42.640;23.312;2022-12-18T12:30:06;16.77;;;8.77;;
20036;SDS011;10179;42.640;23.312;2022-12-18T12:38:16;20.70;;;9.00;;
20036;SDS011;10179;42.640;23.312;2022-12-18T12:40:45;16.30;;;8.27;;
20036;SDS011;10179;42.640;23.312;2022-12-18T12:46:00;16.08;;;8.25;;
20036;SDS011;10179;42.640;23.312;2022-12-18T12:51:03;22.52;;;10.75;;
20036;SDS011;10179;42.640;23.312;2022-12-18T12:53:35;22.27;;;10.30;;
20036;SDS011;10179;42.640;23.312;2022-12-18T12:56:04;22.98;;;10.48;;
20036;SDS011;10179;42.640;23.312;2022-12-18T12:58:52;25.08;;;10.98;;
20036;SDS011;10179;42.640;23.312;2022-12-18T13:01:25;17.88;;;9.90;;
20036;SDS011;10179;42.640;23.312;2022-12-18T13:06:33;27.75;;;11.20;;
20036;SDS011;10179;42.640;23.312;2022-12-18T13:09:22;19.27;;;10.32;;
20036;SDS011;10179;42.640;23.312;2022-12-18T13:11:47;27.13;;;10.52;;
20036;SDS011;10179;42.640;23.312;2022-12-18T13:14:38;27.23;;;11.15;;
20036;SDS011;10179;42.640;23.312;2022-12-18T13:22:45;22.13;;;10.57;;
20036;SDS011;10179;42.640;23.312;2022-12-18T13:36:09;23.02;;;11.40;;
20036;SDS011;10179;42.640;23.312;2022-12-18T13:38:42;24.63;;;11.07;;
20036;SDS011;10179;42.640;23.312;2022-12-18T13:43:44;24.02;;;11.32;;
20036;SDS011;10179;42.640;23.312;2022-12-18T13:46:41;26.92;;;10.70;;
20036;SDS011;10179;42.640;23.312;2022-12-18T13:51:43;21.58;;;10.55;;
20036;SDS011;10179;42.640;23.312;2022-12-18T13:54:19;23.10;;;9.93;;
20036;SDS011;10179;42.640;23.312;2022-12-18T13:56:53;19.65;;;9.30;;
20036;SDS011;10179;42.640;23.312;2022-12-18T13:59:23;23.60;;;10.30;;
20036;SDS011;10179;42.640;23.312;2022-12-18T14:01:59;20.75;;;10.05;;
20036;SDS011;10179;42.640;23.312;2022-12-18T14:04:31;24.05;;;10.95;;
20036;SDS011;10179;42.640;23.312;2022-12-18T14:07:01;22.50;;;10.60;;
20036;SDS011;10179;42.640;23.312;2022-12-18T14:12:20;23.75;;;10.70;;
20036;SDS011;10179;42.640;23.312;2022-12-18T14:15:07;23.65;;;11.52;;
20036;SDS011;10179;42.640;23.312;2022-12-18T14:17:48;24.88;;;12.68;;
20036;SDS011;10179;42.640;23.312;2022-12-18T14:20:15;27.30;;;12.00;;
20036;SDS011;10179;42.640;23.312;2022-12-18T14:22:43;24.73;;;11.27;;
20036;SDS011;10179;42.640;23.312;2022-12-18T14:25:21;21.33;;;11.73;;
20036;SDS011;10179;42.640;23.312;2022-12-18T14:36:13;22.17;;;10.60;;
20036;SDS011;10179;42.640;23.312;2022-12-18T14:38:39;20.25;;;9.95;;
20036;SDS011;10179;42.640;23.312;2022-12-18T14:41:06;18.10;;;9.20;;
20036;SDS011;10179;42.640;23.312;2022-12-18T14:43:37;19.52;;;9.15;;
20036;SDS011;10179;42.640;23.312;2022-12-18T14:46:05;19.92;;;9.90;;
20036;SDS011;10179;42.640;23.312;2022-12-18T14:48:50;21.00;;;9.88;;
20036;SDS011;10179;42.640;23.312;2022-12-18T14:51:20;19.52;;;9.85;;
20036;SDS011;10179;42.640;23.312;2022-12-18T14:53:47;22.80;;;11.20;;
20036;SDS011;10179;42.640;23.312;2022-12-18T14:56:19;22.30;;;11.55;;
20036;SDS011;10179;42.640;23.312;2022-12-18T14:58:46;26.35;;;13.07;;
20036;SDS011;10179;42.640;23.312;2022-12-18T15:01:27;27.95;;;11.60;;
20036;SDS011;10179;42.640;23.312;2022-12-18T15:03:55;26.90;;;12.13;;
20036;SDS011;10179;42.640;23.312;2022-12-18T15:06:24;26.33;;;12.82;;
20036;SDS011;10179;42.640;23.312;2022-12-18T15:08:51;23.08;;;11.35;;
20036;SDS011;10179;42.640;23.312;2022-12-18T15:11:27;23.83;;;12.10;;
20036;SDS011;10179;42.640;23.312;2022-12-18T15:17:20;25.42;;;11.80;;
20036;SDS011;10179;42.640;23.312;2022-12-18T15:19:48;23.23;;;10.73;;
20036;SDS011;10179;42.640;23.312;2022-12-18T15:22:20;22.50;;;10.70;;
20036;SDS011;10179;42.640;23.312;2022-12-18T15:24:48;23.58;;;10.43;;
20036;SDS011;10179;42.640;23.312;2022-12-18T15:27:34;20.77;;;10.02;;
20036;SDS011;10179;42.640;23.312;2022-12-18T15:32:34;20.13;;;9.45;;
20036;SDS011;10179;42.640;23.312;2022-12-18T15:35:23;17.55;;;8.25;;
20036;SDS011;10179;42.640;23.312;2022-12-18T15:37:52;15.05;;;7.78;;
20036;SDS011;10179;42.640;23.312;2022-12-18T15:40:19;16.58;;;8.38;;
20036;SDS011;10179;42.640;23.312;2022-12-18T15:42:49;18.70;;;8.73;;
20036;SDS011;10179;42.640;23.312;2022-12-18T15:45:35;21.83;;;8.25;;
20036;SDS011;10179;42.640;23.312;2022-12-18T15:48:01;20.73;;;9.52;;
20036;SDS011;10179;42.640;23.312;2022-12-18T15:50:29;21.95;;;10.23;;
20036;SDS011;10179;42.640;23.312;2022-12-18T15:52:55;21.02;;;10.40;;
20036;SDS011;10179;42.640;23.312;2022-12-18T15:55:21;20.52;;;9.75;;
20036;SDS011;10179;42.640;23.312;2022-12-18T15:58:08;19.65;;;9.73;;
20036;SDS011;10179;42.640;23.312;2022-12-18T16:00:35;20.67;;;9.57;;
20036;SDS011;10179;42.640;23.312;2022-12-18T16:03:03;21.48;;;10.45;;
20036;SDS011;10179;42.640;23.312;2022-12-18T16:05:30;22.27;;;9.82;;
20036;SDS011;10179;42.640;23.312;2022-12-18T16:07:56;23.85;;;9.73;;
20036;SDS011;10179;42.640;23.312;2022-12-18T16:10:23;20.13;;;9.75;;
20036;SDS011;10179;42.640;23.312;2022-12-18T16:12:50;21.55;;;9.20;;
20036;SDS011;10179;42.640;23.312;2022-12-18T16:15:15;21.25;;;9.80;;
20036;SDS011;10179;42.640;23.312;2022-12-18T16:17:42;23.80;;;10.50;;
20036;SDS011;10179;42.640;23.312;2022-12-18T16:20:11;22.80;;;10.70;;
20036;SDS011;10179;42.640;23.312;2022-12-18T16:22:39;17.27;;;9.05;;
20036;SDS011;10179;42.640;23.312;2022-12-18T16:25:08;19.60;;;9.65;;
20036;SDS011;10179;42.640;23.312;2022-12-18T16:27:41;16.20;;;8.27;;
20036;SDS011;10179;42.640;23.312;2022-12-18T16:30:06;20.23;;;8.50;;
20036;SDS011;10179;42.640;23.312;2022-12-18T16:32:37;16.52;;;7.97;;
20036;SDS011;10179;42.640;23.312;2022-12-18T16:35:03;17.80;;;8.20;;
20036;SDS011;10179;42.640;23.312;2022-12-18T16:37:29;18.90;;;8.73;;
20036;SDS011;10179;42.640;23.312;2022-12-18T16:39:54;17.40;;;8.10;;
20036;SDS011;10179;42.640;23.312;2022-12-18T16:42:20;19.85;;;8.30;;
20036;SDS011;10179;42.640;23.312;2022-12-18T16:44:45;19.65;;;9.00;;
20036;SDS011;10179;42.640;23.312;2022-12-18T16:47:12;20.85;;;8.85;;